sensor_id;sensor_type;location;lat;lon;timestamp;temperature;humidity
1878;DHT22;939;51.426;6.972;2022-12-18T00:01:02;-0.70;99.90
1878;DHT22;939;51.426;6.972;2022-12-18T00:03:32;-0.70;99.90
1878;DHT22;939;51.426;6.972;2022-12-18T00:05:59;-0.70;99.90
1878;DHT22;939;51.426;6.972;2022-12-18T00:08:27;-0.70;99.90
1878;DHT22;939;51.426;6.972;2022-12-18T00:11:03;-0.70;99.90
1878;DHT22;939;51.426;6.972;2022-12-18T00:13:30;-0.60;99.90
1878;DHT22;939;51.426;6.972;2022-12-18T00:16:01;-0.60;99.90
1878;DHT22;939;51.426;6.972;2022-12-18T00:18:28;-0.50;99.90
1878;DHT22;939;51.426;6.972;2022-12-18T00:20:58;-0.70;99.90
1878;DHT22;939;51.426;6.972;2022-12-18T00:23:26;-0.50;99.90
1878;DHT22;939;51.426;6.972;2022-12-18T00:25:52;-0.40;99.90
1878;DHT22;939;51.426;6.972;2022-12-18T00:28:21;-0.60;99.90
1878;DHT22;939;51.426;6.972;2022-12-18T00:30:48;-0.80;99.90
1878;DHT22;939;51.426;6.972;2022-12-18T00:33:16;-0.70;99.90
1878;DHT22;939;51.426;6.972;2022-12-18T00:35:43;-0.70;99.90
1878;DHT22;939;51.426;6.972;2022-12-18T00:38:10;-0.70;99.90
1878;DHT22;939;51.426;6.972;2022-12-18T00:40:37;-0.50;99.90
1878;DHT22;939;51.426;6.972;2022-12-18T00:43:10;-0.50;99.90
1878;DHT22;939;51.426;6.972;2022-12-18T00:45:37;-0.60;99.90
1878;DHT22;939;51.426;6.972;2022-12-18T00:48:04;-0.60;99.90
1878;DHT22;939;51.426;6.972;2022-12-18T00:50:31;-0.50;99.90
1878;DHT22;939;51.426;6.972;2022-12-18T00:52:58;-0.40;99.90
1878;DHT22;939;51.426;6.972;2022-12-18T00:55:25;-0.50;99.90
1878;DHT22;939;51.426;6.972;2022-12-18T00:57:52;-0.60;99.90
1878;DHT22;939;51.426;6.972;2022-12-18T01:00:19;-0.60;99.90
1878;DHT22;939;51.426;6.972;2022-12-18T01:02:47;-0.50;99.90
1878;DHT22;939;51.426;6.972;2022-12-18T01:05:15;-0.50;99.90
1878;DHT22;939;51.426;6.972;2022-12-18T01:07:42;-0.50;99.90
1878;DHT22;939;51.426;6.972;2022-12-18T01:10:11;-0.40;99.90
1878;DHT22;939;51.426;6.972;2022-12-18T01:12:39;-0.50;99.90
1878;DHT22;939;51.426;6.972;2022-12-18T01:15:07;-0.60;99.90
1878;DHT22;939;51.426;6.972;2022-12-18T01:17:34;-0.40;99.90
1878;DHT22;939;51.426;6.972;2022-12-18T01:20:04;-0.50;99.90
1878;DHT22;939;51.426;6.972;2022-12-18T01:22:34;-0.50;99.90
1878;DHT22;939;51.426;6.972;2022-12-18T01:25:01;-0.50;99.90
1878;DHT22;939;51.426;6.972;2022-12-18T01:27:29;-0.70;99.90
1878;DHT22;939;51.426;6.972;2022-12-18T01:29:56;-0.80;99.90
1878;DHT22;939;51.426;6.972;2022-12-18T01:32:23;-0.60;99.90
1878;DHT22;939;51.426;6.972;2022-12-18T01:34:49;-0.70;99.90
1878;DHT22;939;51.426;6.972;2022-12-18T01:37:18;-0.70;99.90
1878;DHT22;939;51.426;6.972;2022-12-18T01:39:45;-0.50;99.90
1878;DHT22;939;51.426;6.972;2022-12-18T01:42:13;-0.40;99.90
1878;DHT22;939;51.426;6.972;2022-12-18T01:44:59;-0.40;99.90
1878;DHT22;939;51.426;6.972;2022-12-18T01:47:30;-0.50;99.90
1878;DHT22;939;51.426;6.972;2022-12-18T01:50:00;-0.50;99.90
1878;DHT22;939;51.426;6.972;2022-12-18T01:52:31;-0.50;99.90
1878;DHT22;939;51.426;6.972;2022-12-18T01:55:00;-0.60;99.90
1878;DHT22;939;51.426;6.972;2022-12-18T01:57:34;-0.60;99.90
1878;DHT22;939;51.426;6.972;2022-12-18T02:00:04;-0.60;99.90
1878;DHT22;939;51.426;6.972;2022-12-18T02:02:32;-0.60;99.90
1878;DHT22;939;51.426;6.972;2022-12-18T02:04:59;-0.50;99.90
1878;DHT22;939;51.426;6.972;2022-12-18T02:07:36;-0.60;99.90
1878;DHT22;939;51.426;6.972;2022-12-18T02:10:08;-0.60;99.90
1878;DHT22;939;51.426;6.972;2022-12-18T02:12:45;-0.50;99.90
1878;DHT22;939;51.426;6.972;2022-12-18T02:15:17;-0.40;99.90
1878;DHT22;939;51.426;6.972;2022-12-18T02:17:50;-0.40;99.90
1878;DHT22;939;51.426;6.972;2022-12-18T02:20:23;-0.30;99.90
1878;DHT22;939;51.426;6.972;2022-12-18T02:23:04;-0.30;99.90
1878;DHT22;939;51.426;6.972;2022-12-18T02:28:16;-0.30;99.90
1878;DHT22;939;51.426;6.972;2022-12-18T02:30:48;-0.20;99.90
1878;DHT22;939;51.426;6.972;2022-12-18T02:33:16;-0.20;99.90
1878;DHT22;939;51.426;6.972;2022-12-18T02:35:44;-0.10;99.90
1878;DHT22;939;51.426;6.972;2022-12-18T02:38:12;-0.10;99.90
1878;DHT22;939;51.426;6.972;2022-12-18T02:40:41;-0.20;99.90
1878;DHT22;939;51.426;6.972;2022-12-18T02:43:10;-0.20;99.90
1878;DHT22;939;51.426;6.972;2022-12-18T02:45:50;-0.20;99.90
1878;DHT22;939;51.426;6.972;2022-12-18T02:48:18;-0.10;99.90
1878;DHT22;939;51.426;6.972;2022-12-18T02:50:51;-0.10;99.90
1878;DHT22;939;51.426;6.972;2022-12-18T02:53:26;-0.20;99.90
1878;DHT22;939;51.426;6.972;2022-12-18T02:56:01;-0.20;99.90
1878;DHT22;939;51.426;6.972;2022-12-18T02:58:34;-0.10;99.90
1878;DHT22;939;51.426;6.972;2022-12-18T03:01:16;0.10;99.90
1878;DHT22;939;51.426;6.972;2022-12-18T03:03:50;0.10;99.90
1878;DHT22;939;51.426;6.972;2022-12-18T03:06:23;0.00;99.90
1878;DHT22;939;51.426;6.972;2022-12-18T03:08:56;0.10;99.90
1878;DHT22;939;51.426;6.972;2022-12-18T03:11:24;0.00;99.90
1878;DHT22;939;51.426;6.972;2022-12-18T03:14:07;-0.20;99.90
1878;DHT22;939;51.426;6.972;2022-12-18T03:16:36;-0.10;99.90
1878;DHT22;939;51.426;6.972;2022-12-18T03:19:06;-0.10;99.90
1878;DHT22;939;51.426;6.972;2022-12-18T03:21:41;-0.10;99.90
1878;DHT22;939;51.426;6.972;2022-12-18T03:24:10;0.00;99.90
1878;DHT22;939;51.426;6.972;2022-12-18T03:26:43;0.00;99.90
1878;DHT22;939;51.426;6.972;2022-12-18T03:29:15;0.00;99.90
1878;DHT22;939;51.426;6.972;2022-12-18T03:31:48;0.10;99.90
1878;DHT22;939;51.426;6.972;2022-12-18T03:34:21;0.20;99.90
1878;DHT22;939;51.426;6.972;2022-12-18T03:36:49;0.10;99.90
1878;DHT22;939;51.426;6.972;2022-12-18T03:39:16;0.20;99.90
1878;DHT22;939;51.426;6.972;2022-12-18T03:41:44;0.10;99.90
1878;DHT22;939;51.426;6.972;2022-12-18T03:44:13;0.10;99.90
1878;DHT22;939;51.426;6.972;2022-12-18T03:46:46;0.10;99.90
1878;DHT22;939;51.426;6.972;2022-12-18T03:49:20;-0.10;99.90
1878;DHT22;939;51.426;6.972;2022-12-18T03:51:54;-0.20;99.90
1878;DHT22;939;51.426;6.972;2022-12-18T03:54:26;0.10;99.90
1878;DHT22;939;51.426;6.972;2022-12-18T03:56:57;0.20;99.90
1878;DHT22;939;51.426;6.972;2022-12-18T03:59:25;0.20;99.90
1878;DHT22;939;51.426;6.972;2022-12-18T04:01:55;0.10;99.90
1878;DHT22;939;51.426;6.972;2022-12-18T04:04:25;0.10;99.90
1878;DHT22;939;51.426;6.972;2022-12-18T04:06:52;0.00;99.90
1878;DHT22;939;51.426;6.972;2022-12-18T04:09:20;0.00;99.90
1878;DHT22;939;51.426;6.972;2022-12-18T04:11:48;0.20;99.90
1878;DHT22;939;51.426;6.972;2022-12-18T04:14:15;0.20;99.90
1878;DHT22;939;51.426;6.972;2022-12-18T04:16:41;0.10;99.90
1878;DHT22;939;51.426;6.972;2022-12-18T04:19:10;0.00;99.90
1878;DHT22;939;51.426;6.972;2022-12-18T04:21:37;0.00;99.90
1878;DHT22;939;51.426;6.972;2022-12-18T04:24:05;0.00;99.90
1878;DHT22;939;51.426;6.972;2022-12-18T04:26:32;0.10;99.90
1878;DHT22;939;51.426;6.972;2022-12-18T04:28:58;0.10;99.90
1878;DHT22;939;51.426;6.972;2022-12-18T04:31:25;0.10;99.90
1878;DHT22;939;51.426;6.972;2022-12-18T04:33:52;-0.10;99.90
1878;DHT22;939;51.426;6.972;2022-12-18T04:36:20;-0.20;99.90
1878;DHT22;939;51.426;6.972;2022-12-18T04:38:48;-0.20;99.90
1878;DHT22;939;51.426;6.972;2022-12-18T04:41:15;-0.20;99.90
1878;DHT22;939;51.426;6.972;2022-12-18T04:43:42;-0.20;99.90
1878;DHT22;939;51.426;6.972;2022-12-18T04:46:09;-0.30;99.90
1878;DHT22;939;51.426;6.972;2022-12-18T04:48:36;-0.30;99.90
1878;DHT22;939;51.426;6.972;2022-12-18T04:51:04;-0.30;99.90
1878;DHT22;939;51.426;6.972;2022-12-18T04:53:32;-0.40;99.90
1878;DHT22;939;51.426;6.972;2022-12-18T04:56:04;-0.40;99.90
1878;DHT22;939;51.426;6.972;2022-12-18T04:58:31;-0.40;99.90
1878;DHT22;939;51.426;6.972;2022-12-18T05:00:58;-0.50;99.90
1878;DHT22;939;51.426;6.972;2022-12-18T05:03:25;-0.60;99.90
1878;DHT22;939;51.426;6.972;2022-12-18T05:05:52;-0.70;99.90
1878;DHT22;939;51.426;6.972;2022-12-18T05:08:19;-0.60;99.90
1878;DHT22;939;51.426;6.972;2022-12-18T05:10:47;-0.70;99.90
1878;DHT22;939;51.426;6.972;2022-12-18T05:13:14;-0.70;99.90
1878;DHT22;939;51.426;6.972;2022-12-18T05:15:41;-0.80;99.90
1878;DHT22;939;51.426;6.972;2022-12-18T05:18:08;-0.90;99.90
1878;DHT22;939;51.426;6.972;2022-12-18T05:20:35;-0.90;99.90
1878;DHT22;939;51.426;6.972;2022-12-18T05:23:02;-0.90;99.90
1878;DHT22;939;51.426;6.972;2022-12-18T05:25:29;-0.90;99.90
1878;DHT22;939;51.426;6.972;2022-12-18T05:27:57;-0.90;99.90
1878;DHT22;939;51.426;6.972;2022-12-18T05:30:24;-0.80;99.90
1878;DHT22;939;51.426;6.972;2022-12-18T05:32:51;-0.60;99.90
1878;DHT22;939;51.426;6.972;2022-12-18T05:35:18;-0.40;99.90
1878;DHT22;939;51.426;6.972;2022-12-18T05:37:45;-0.30;99.90
1878;DHT22;939;51.426;6.972;2022-12-18T05:40:12;-0.40;99.90
1878;DHT22;939;51.426;6.972;2022-12-18T05:42:39;-0.40;99.90
1878;DHT22;939;51.426;6.972;2022-12-18T05:45:08;-0.30;99.90
1878;DHT22;939;51.426;6.972;2022-12-18T05:47:35;-0.30;99.90
1878;DHT22;939;51.426;6.972;2022-12-18T05:50:03;-0.30;99.90
1878;DHT22;939;51.426;6.972;2022-12-18T05:52:30;-0.30;99.90
1878;DHT22;939;51.426;6.972;2022-12-18T05:54:57;-0.30;99.90
1878;DHT22;939;51.426;6.972;2022-12-18T05:57:24;-0.30;99.90
1878;DHT22;939;51.426;6.972;2022-12-18T05:59:51;-0.40;99.90
1878;DHT22;939;51.426;6.972;2022-12-18T06:02:19;-0.40;99.90
1878;DHT22;939;51.426;6.972;2022-12-18T06:04:47;-0.40;99.90
1878;DHT22;939;51.426;6.972;2022-12-18T06:07:14;-0.50;99.90
1878;DHT22;939;51.426;6.972;2022-12-18T06:09:40;-0.50;99.90
1878;DHT22;939;51.426;6.972;2022-12-18T06:12:07;-0.70;99.90
1878;DHT22;939;51.426;6.972;2022-12-18T06:14:34;-0.70;99.90
1878;DHT22;939;51.426;6.972;2022-12-18T06:17:01;-0.80;99.90
1878;DHT22;939;51.426;6.972;2022-12-18T06:19:29;-0.90;99.90
1878;DHT22;939;51.426;6.972;2022-12-18T06:21:56;-1.00;99.90
1878;DHT22;939;51.426;6.972;2022-12-18T06:24:24;-1.10;99.90
1878;DHT22;939;51.426;6.972;2022-12-18T06:26:51;-1.10;99.90
1878;DHT22;939;51.426;6.972;2022-12-18T06:29:17;-1.20;99.90
1878;DHT22;939;51.426;6.972;2022-12-18T06:31:44;-1.20;99.90
1878;DHT22;939;51.426;6.972;2022-12-18T06:34:11;-1.30;99.90
1878;DHT22;939;51.426;6.972;2022-12-18T06:36:39;-1.30;99.90
1878;DHT22;939;51.426;6.972;2022-12-18T06:39:06;-1.40;99.90
1878;DHT22;939;51.426;6.972;2022-12-18T06:41:32;-1.50;99.90
1878;DHT22;939;51.426;6.972;2022-12-18T06:43:59;-1.50;99.90
1878;DHT22;939;51.426;6.972;2022-12-18T06:46:26;-1.50;99.90
1878;DHT22;939;51.426;6.972;2022-12-18T06:48:53;-1.60;99.90
1878;DHT22;939;51.426;6.972;2022-12-18T06:51:20;-1.60;99.90
1878;DHT22;939;51.426;6.972;2022-12-18T06:53:49;-1.70;99.90
1878;DHT22;939;51.426;6.972;2022-12-18T06:56:16;-1.70;99.90
1878;DHT22;939;51.426;6.972;2022-12-18T06:58:43;-1.70;99.90
1878;DHT22;939;51.426;6.972;2022-12-18T07:01:11;-1.70;99.90
1878;DHT22;939;51.426;6.972;2022-12-18T07:03:38;-1.70;99.90
1878;DHT22;939;51.426;6.972;2022-12-18T07:06:05;-1.70;99.90
1878;DHT22;939;51.426;6.972;2022-12-18T07:08:33;-1.80;99.90
1878;DHT22;939;51.426;6.972;2022-12-18T07:11:03;-1.80;99.90
1878;DHT22;939;51.426;6.972;2022-12-18T07:13:30;-1.90;99.90
1878;DHT22;939;51.426;6.972;2022-12-18T07:16:03;-1.90;99.90
1878;DHT22;939;51.426;6.972;2022-12-18T07:18:30;-1.80;99.90
1878;DHT22;939;51.426;6.972;2022-12-18T07:20:57;-1.80;99.90
1878;DHT22;939;51.426;6.972;2022-12-18T07:23:24;-1.70;99.90
1878;DHT22;939;51.426;6.972;2022-12-18T07:25:51;-1.50;99.90
1878;DHT22;939;51.426;6.972;2022-12-18T07:28:19;-1.30;99.90
1878;DHT22;939;51.426;6.972;2022-12-18T07:30:46;-1.10;99.90
1878;DHT22;939;51.426;6.972;2022-12-18T07:33:13;-1.00;99.90
1878;DHT22;939;51.426;6.972;2022-12-18T07:35:39;-0.90;99.90
1878;DHT22;939;51.426;6.972;2022-12-18T07:38:06;-0.80;99.90
1878;DHT22;939;51.426;6.972;2022-12-18T07:40:33;-0.70;99.90
1878;DHT22;939;51.426;6.972;2022-12-18T07:43:00;-0.60;99.90
1878;DHT22;939;51.426;6.972;2022-12-18T07:45:31;-0.60;99.90
1878;DHT22;939;51.426;6.972;2022-12-18T07:47:58;-0.50;99.90
1878;DHT22;939;51.426;6.972;2022-12-18T07:50:25;-0.40;99.90
1878;DHT22;939;51.426;6.972;2022-12-18T07:52:51;-0.40;99.90
1878;DHT22;939;51.426;6.972;2022-12-18T07:55:18;-0.40;99.90
1878;DHT22;939;51.426;6.972;2022-12-18T07:57:45;-0.40;99.90
1878;DHT22;939;51.426;6.972;2022-12-18T08:00:13;-0.30;99.90
1878;DHT22;939;51.426;6.972;2022-12-18T08:02:41;-0.30;99.90
1878;DHT22;939;51.426;6.972;2022-12-18T08:05:09;-0.20;99.90
1878;DHT22;939;51.426;6.972;2022-12-18T08:07:35;-0.10;99.90
1878;DHT22;939;51.426;6.972;2022-12-18T08:10:03;0.00;99.90
1878;DHT22;939;51.426;6.972;2022-12-18T08:12:30;0.00;99.90
1878;DHT22;939;51.426;6.972;2022-12-18T08:14:57;0.10;99.90
1878;DHT22;939;51.426;6.972;2022-12-18T08:17:24;0.20;99.90
1878;DHT22;939;51.426;6.972;2022-12-18T08:19:52;0.20;99.90
1878;DHT22;939;51.426;6.972;2022-12-18T08:22:19;0.30;99.80
1878;DHT22;939;51.426;6.972;2022-12-18T08:24:46;0.40;98.90
1878;DHT22;939;51.426;6.972;2022-12-18T08:27:13;0.40;99.10
1878;DHT22;939;51.426;6.972;2022-12-18T08:29:40;0.60;98.90
1878;DHT22;939;51.426;6.972;2022-12-18T08:32:07;0.50;98.40
1878;DHT22;939;51.426;6.972;2022-12-18T08:34:34;0.60;98.40
1878;DHT22;939;51.426;6.972;2022-12-18T08:37:02;0.60;98.20
1878;DHT22;939;51.426;6.972;2022-12-18T08:39:32;0.70;98.10
1878;DHT22;939;51.426;6.972;2022-12-18T08:42:00;0.70;97.00
1878;DHT22;939;51.426;6.972;2022-12-18T08:45:02;0.80;96.90
1878;DHT22;939;51.426;6.972;2022-12-18T08:47:29;0.80;97.10
1878;DHT22;939;51.426;6.972;2022-12-18T08:49:56;0.80;96.90
1878;DHT22;939;51.426;6.972;2022-12-18T08:52:24;0.90;97.40
1878;DHT22;939;51.426;6.972;2022-12-18T08:54:51;1.00;97.10
1878;DHT22;939;51.426;6.972;2022-12-18T08:57:18;1.00;96.90
1878;DHT22;939;51.426;6.972;2022-12-18T08:59:47;1.00;96.90
1878;DHT22;939;51.426;6.972;2022-12-18T09:02:14;1.10;96.50
1878;DHT22;939;51.426;6.972;2022-12-18T09:04:41;1.10;95.80
1878;DHT22;939;51.426;6.972;2022-12-18T09:07:08;1.10;95.70
1878;DHT22;939;51.426;6.972;2022-12-18T09:09:37;1.20;95.10
1878;DHT22;939;51.426;6.972;2022-12-18T09:12:05;1.30;95.20
1878;DHT22;939;51.426;6.972;2022-12-18T09:14:32;1.30;95.00
1878;DHT22;939;51.426;6.972;2022-12-18T09:16:59;1.40;94.60
1878;DHT22;939;51.426;6.972;2022-12-18T09:19:35;1.50;94.10
1878;DHT22;939;51.426;6.972;2022-12-18T09:22:03;1.50;93.40
1878;DHT22;939;51.426;6.972;2022-12-18T09:24:32;1.60;93.40
1878;DHT22;939;51.426;6.972;2022-12-18T09:27:02;1.70;92.80
1878;DHT22;939;51.426;6.972;2022-12-18T09:29:29;1.80;92.20
1878;DHT22;939;51.426;6.972;2022-12-18T09:32:29;1.80;91.70
1878;DHT22;939;51.426;6.972;2022-12-18T09:39:05;2.00;90.80
1878;DHT22;939;51.426;6.972;2022-12-18T09:48:48;2.20;88.20
1878;DHT22;939;51.426;6.972;2022-12-18T09:52:23;2.50;85.80
1878;DHT22;939;51.426;6.972;2022-12-18T09:55:43;2.50;83.80
1878;DHT22;939;51.426;6.972;2022-12-18T10:05:23;2.70;82.00
1878;DHT22;939;51.426;6.972;2022-12-18T10:15:10;3.00;78.50
1878;DHT22;939;51.426;6.972;2022-12-18T10:17:46;3.10;79.60
1878;DHT22;939;51.426;6.972;2022-12-18T10:20:40;3.30;77.90
1878;DHT22;939;51.426;6.972;2022-12-18T10:23:16;3.30;78.10
1878;DHT22;939;51.426;6.972;2022-12-18T10:26:07;3.50;81.20
1878;DHT22;939;51.426;6.972;2022-12-18T10:29:07;3.50;79.40
1878;DHT22;939;51.426;6.972;2022-12-18T10:31:48;3.50;77.50
1878;DHT22;939;51.426;6.972;2022-12-18T10:34:17;3.80;75.50
1878;DHT22;939;51.426;6.972;2022-12-18T10:36:53;3.80;74.30
1878;DHT22;939;51.426;6.972;2022-12-18T10:39:22;3.70;73.90
1878;DHT22;939;51.426;6.972;2022-12-18T10:42:09;3.70;73.60
1878;DHT22;939;51.426;6.972;2022-12-18T10:44:38;3.60;72.80
1878;DHT22;939;51.426;6.972;2022-12-18T10:47:21;3.90;74.00
1878;DHT22;939;51.426;6.972;2022-12-18T10:50:25;4.00;73.10
1878;DHT22;939;51.426;6.972;2022-12-18T10:52:59;4.20;72.20
1878;DHT22;939;51.426;6.972;2022-12-18T10:55:34;4.30;70.30
1878;DHT22;939;51.426;6.972;2022-12-18T10:58:16;4.20;69.90
1878;DHT22;939;51.426;6.972;2022-12-18T11:01:05;4.00;68.40
1878;DHT22;939;51.426;6.972;2022-12-18T11:03:40;4.10;69.40
1878;DHT22;939;51.426;6.972;2022-12-18T11:06:11;4.20;71.00
1878;DHT22;939;51.426;6.972;2022-12-18T11:08:40;4.40;70.30
1878;DHT22;939;51.426;6.972;2022-12-18T11:11:18;4.20;67.80
1878;DHT22;939;51.426;6.972;2022-12-18T11:13:58;4.30;68.90
1878;DHT22;939;51.426;6.972;2022-12-18T11:16:27;4.30;67.60
1878;DHT22;939;51.426;6.972;2022-12-18T11:19:11;4.20;66.50
1878;DHT22;939;51.426;6.972;2022-12-18T11:21:42;4.30;73.40
1878;DHT22;939;51.426;6.972;2022-12-18T11:24:20;4.50;71.80
1878;DHT22;939;51.426;6.972;2022-12-18T11:32:47;4.50;66.80
1878;DHT22;939;51.426;6.972;2022-12-18T11:35:18;4.70;67.20
1878;DHT22;939;51.426;6.972;2022-12-18T11:37:49;4.90;67.00
1878;DHT22;939;51.426;6.972;2022-12-18T11:40:21;5.00;67.30
1878;DHT22;939;51.426;6.972;2022-12-18T11:42:53;5.10;67.50
1878;DHT22;939;51.426;6.972;2022-12-18T11:45:27;5.20;67.50
1878;DHT22;939;51.426;6.972;2022-12-18T11:47:59;5.30;64.90
1878;DHT22;939;51.426;6.972;2022-12-18T11:50:32;5.40;65.70
1878;DHT22;939;51.426;6.972;2022-12-18T11:53:01;5.40;64.70
1878;DHT22;939;51.426;6.972;2022-12-18T11:55:36;5.40;63.40
1878;DHT22;939;51.426;6.972;2022-12-18T11:58:11;5.50;66.90
1878;DHT22;939;51.426;6.972;2022-12-18T12:00:45;5.50;69.90
1878;DHT22;939;51.426;6.972;2022-12-18T12:03:39;5.50;69.80
1878;DHT22;939;51.426;6.972;2022-12-18T12:06:14;5.50;65.80
1878;DHT22;939;51.426;6.972;2022-12-18T12:08:57;5.50;70.00
1878;DHT22;939;51.426;6.972;2022-12-18T12:11:35;5.50;70.00
1878;DHT22;939;51.426;6.972;2022-12-18T12:14:27;5.40;66.50
1878;DHT22;939;51.426;6.972;2022-12-18T12:17:03;5.40;65.60
1878;DHT22;939;51.426;6.972;2022-12-18T12:19:40;5.40;68.90
1878;DHT22;939;51.426;6.972;2022-12-18T12:22:17;5.30;65.40
1878;DHT22;939;51.426;6.972;2022-12-18T12:24:55;5.30;67.30
1878;DHT22;939;51.426;6.972;2022-12-18T12:27:35;4.90;68.60
1878;DHT22;939;51.426;6.972;2022-12-18T12:30:08;4.50;68.10
1878;DHT22;939;51.426;6.972;2022-12-18T12:32:49;4.40;67.80
1878;DHT22;939;51.426;6.972;2022-12-18T12:35:29;4.30;70.00
1878;DHT22;939;51.426;6.972;2022-12-18T12:38:06;4.20;70.10
1878;DHT22;939;51.426;6.972;2022-12-18T12:40:37;4.10;71.40
1878;DHT22;939;51.426;6.972;2022-12-18T12:43:19;4.00;70.40
1878;DHT22;939;51.426;6.972;2022-12-18T12:45:50;4.20;70.80
1878;DHT22;939;51.426;6.972;2022-12-18T12:48:27;4.10;70.10
1878;DHT22;939;51.426;6.972;2022-12-18T12:50:59;4.10;69.80
1878;DHT22;939;51.426;6.972;2022-12-18T12:53:31;4.00;72.10
1878;DHT22;939;51.426;6.972;2022-12-18T12:55:59;4.00;70.30
1878;DHT22;939;51.426;6.972;2022-12-18T12:58:34;4.00;71.20
1878;DHT22;939;51.426;6.972;2022-12-18T13:01:10;3.90;70.50
1878;DHT22;939;51.426;6.972;2022-12-18T13:03:51;3.70;72.00
1878;DHT22;939;51.426;6.972;2022-12-18T13:06:29;3.80;72.60
1878;DHT22;939;51.426;6.972;2022-12-18T13:09:00;3.70;74.20
1878;DHT22;939;51.426;6.972;2022-12-18T13:11:35;3.70;75.00
1878;DHT22;939;51.426;6.972;2022-12-18T13:14:24;3.90;76.50
1878;DHT22;939;51.426;6.972;2022-12-18T13:17:14;4.10;79.60
1878;DHT22;939;51.426;6.972;2022-12-18T13:19:41;4.10;79.20
1878;DHT22;939;51.426;6.972;2022-12-18T13:22:21;4.10;79.90
1878;DHT22;939;51.426;6.972;2022-12-18T13:24:48;4.10;78.00
1878;DHT22;939;51.426;6.972;2022-12-18T13:27:46;3.90;78.90
1878;DHT22;939;51.426;6.972;2022-12-18T13:30:44;3.70;79.10
1878;DHT22;939;51.426;6.972;2022-12-18T13:36:32;3.50;81.80
1878;DHT22;939;51.426;6.972;2022-12-18T13:42:36;3.20;83.20
1878;DHT22;939;51.426;6.972;2022-12-18T13:45:42;3.10;84.40
1878;DHT22;939;51.426;6.972;2022-12-18T13:48:22;3.10;84.90
1878;DHT22;939;51.426;6.972;2022-12-18T13:50:53;3.00;83.30
1878;DHT22;939;51.426;6.972;2022-12-18T13:53:24;3.10;83.40
1878;DHT22;939;51.426;6.972;2022-12-18T13:55:53;3.00;83.30
1878;DHT22;939;51.426;6.972;2022-12-18T13:58:20;3.20;84.80
1878;DHT22;939;51.426;6.972;2022-12-18T14:00:47;3.30;84.60
1878;DHT22;939;51.426;6.972;2022-12-18T14:03:23;3.40;86.70
1878;DHT22;939;51.426;6.972;2022-12-18T14:06:01;3.30;83.40
1878;DHT22;939;51.426;6.972;2022-12-18T14:08:34;3.10;82.50
1878;DHT22;939;51.426;6.972;2022-12-18T14:11:03;3.20;85.40
1878;DHT22;939;51.426;6.972;2022-12-18T14:13:33;3.20;84.90
1878;DHT22;939;51.426;6.972;2022-12-18T14:16:04;3.30;85.90
1878;DHT22;939;51.426;6.972;2022-12-18T14:18:41;3.30;83.70
1878;DHT22;939;51.426;6.972;2022-12-18T14:21:21;3.00;83.60
1878;DHT22;939;51.426;6.972;2022-12-18T14:24:05;3.00;83.90
1878;DHT22;939;51.426;6.972;2022-12-18T14:26:33;3.00;83.70
1878;DHT22;939;51.426;6.972;2022-12-18T14:29:14;2.90;84.10
1878;DHT22;939;51.426;6.972;2022-12-18T14:31:44;2.90;86.30
1878;DHT22;939;51.426;6.972;2022-12-18T14:34:16;3.10;84.00
1878;DHT22;939;51.426;6.972;2022-12-18T14:36:52;3.20;82.80
1878;DHT22;939;51.426;6.972;2022-12-18T14:39:19;3.30;82.40
1878;DHT22;939;51.426;6.972;2022-12-18T14:41:48;3.30;81.40
1878;DHT22;939;51.426;6.972;2022-12-18T14:44:15;3.40;81.80
1878;DHT22;939;51.426;6.972;2022-12-18T14:46:43;3.30;80.90
1878;DHT22;939;51.426;6.972;2022-12-18T14:49:21;3.30;80.70
1878;DHT22;939;51.426;6.972;2022-12-18T14:51:51;3.30;81.40
1878;DHT22;939;51.426;6.972;2022-12-18T14:54:20;3.30;83.10
1878;DHT22;939;51.426;6.972;2022-12-18T14:56:49;3.50;82.70
1878;DHT22;939;51.426;6.972;2022-12-18T14:59:20;3.60;83.00
1878;DHT22;939;51.426;6.972;2022-12-18T15:01:55;3.60;80.60
1878;DHT22;939;51.426;6.972;2022-12-18T15:04:27;3.50;80.10
1878;DHT22;939;51.426;6.972;2022-12-18T15:07:12;3.70;81.00
1878;DHT22;939;51.426;6.972;2022-12-18T15:09:41;3.80;79.10
1878;DHT22;939;51.426;6.972;2022-12-18T15:12:22;3.70;82.30
1878;DHT22;939;51.426;6.972;2022-12-18T15:14:51;3.60;82.30
1878;DHT22;939;51.426;6.972;2022-12-18T15:17:19;3.70;82.20
1878;DHT22;939;51.426;6.972;2022-12-18T15:19:51;3.70;83.70
1878;DHT22;939;51.426;6.972;2022-12-18T15:22:21;3.70;82.80
1878;DHT22;939;51.426;6.972;2022-12-18T15:24:49;3.70;84.40
1878;DHT22;939;51.426;6.972;2022-12-18T15:27:25;3.50;83.80
1878;DHT22;939;51.426;6.972;2022-12-18T15:30:18;3.50;84.70
1878;DHT22;939;51.426;6.972;2022-12-18T15:32:47;3.50;85.80
1878;DHT22;939;51.426;6.972;2022-12-18T15:35:19;3.40;85.70
1878;DHT22;939;51.426;6.972;2022-12-18T15:37:46;3.40;86.70
1878;DHT22;939;51.426;6.972;2022-12-18T15:40:15;3.40;86.90
1878;DHT22;939;51.426;6.972;2022-12-18T15:42:43;3.20;88.60
1878;DHT22;939;51.426;6.972;2022-12-18T15:45:28;3.40;89.40
1878;DHT22;939;51.426;6.972;2022-12-18T15:47:54;3.50;89.20
1878;DHT22;939;51.426;6.972;2022-12-18T15:50:23;3.50;89.60
1878;DHT22;939;51.426;6.972;2022-12-18T15:52:52;3.50;90.00
1878;DHT22;939;51.426;6.972;2022-12-18T15:55:21;3.60;90.10
1878;DHT22;939;51.426;6.972;2022-12-18T15:58:07;3.50;90.70
1878;DHT22;939;51.426;6.972;2022-12-18T16:00:36;3.30;92.40
1878;DHT22;939;51.426;6.972;2022-12-18T16:03:11;3.30;92.90
1878;DHT22;939;51.426;6.972;2022-12-18T16:05:39;3.20;93.20
1878;DHT22;939;51.426;6.972;2022-12-18T16:08:06;3.00;93.70
1878;DHT22;939;51.426;6.972;2022-12-18T16:10:34;3.10;94.00
1878;DHT22;939;51.426;6.972;2022-12-18T16:13:02;3.10;93.70
1878;DHT22;939;51.426;6.972;2022-12-18T16:15:32;3.20;94.30
1878;DHT22;939;51.426;6.972;2022-12-18T16:17:59;3.20;94.20
1878;DHT22;939;51.426;6.972;2022-12-18T16:20:26;3.10;94.50
1878;DHT22;939;51.426;6.972;2022-12-18T16:22:54;2.90;94.50
1878;DHT22;939;51.426;6.972;2022-12-18T16:25:23;2.80;95.40
1878;DHT22;939;51.426;6.972;2022-12-18T16:28:25;2.70;97.10
1878;DHT22;939;51.426;6.972;2022-12-18T16:36:56;2.60;98.00
1878;DHT22;939;51.426;6.972;2022-12-18T16:38:05;2.70;98.40
1878;DHT22;939;51.426;6.972;2022-12-18T16:40:32;2.60;98.20
1878;DHT22;939;51.426;6.972;2022-12-18T16:43:19;2.60;99.00
1878;DHT22;939;51.426;6.972;2022-12-18T16:45:46;2.60;99.30
1878;DHT22;939;51.426;6.972;2022-12-18T16:48:13;2.60;99.60
1878;DHT22;939;51.426;6.972;2022-12-18T16:50:40;2.50;99.90
1878;DHT22;939;51.426;6.972;2022-12-18T16:53:16;2.50;99.90
1878;DHT22;939;51.426;6.972;2022-12-18T16:55:57;2.40;99.90
1878;DHT22;939;51.426;6.972;2022-12-18T16:58:36;2.40;99.90
1878;DHT22;939;51.426;6.972;2022-12-18T17:01:07;2.40;99.90
1878;DHT22;939;51.426;6.972;2022-12-18T17:03:34;2.20;99.90
1878;DHT22;939;51.426;6.972;2022-12-18T17:06:02;2.20;99.90
1878;DHT22;939;51.426;6.972;2022-12-18T17:08:30;2.20;99.90
1878;DHT22;939;51.426;6.972;2022-12-18T17:11:03;2.10;99.90
1878;DHT22;939;51.426;6.972;2022-12-18T17:13:31;2.10;99.90
1878;DHT22;939;51.426;6.972;2022-12-18T17:16:02;2.20;99.90
1878;DHT22;939;51.426;6.972;2022-12-18T17:18:29;2.20;99.90
1878;DHT22;939;51.426;6.972;2022-12-18T17:20:59;2.20;99.90
1878;DHT22;939;51.426;6.972;2022-12-18T17:23:32;2.10;99.90
1878;DHT22;939;51.426;6.972;2022-12-18T17:31:10;1.90;99.90
1878;DHT22;939;51.426;6.972;2022-12-18T17:33:37;1.90;99.90
1878;DHT22;939;51.426;6.972;2022-12-18T17:36:04;1.80;99.90
1878;DHT22;939;51.426;6.972;2022-12-18T17:38:33;1.70;99.90
1878;DHT22;939;51.426;6.972;2022-12-18T17:41:01;1.60;99.90
1878;DHT22;939;51.426;6.972;2022-12-18T17:43:28;1.60;99.90
1878;DHT22;939;51.426;6.972;2022-12-18T17:45:55;1.80;99.90